Time;durP1;ratioP1;P1;durP2;ratioP2;P2;SDS_P1;SDS_P2;PMS_P1;PMS_P2;Temp;Humidity;BMP_temperature;BMP_pressure;BME280_temperature;BME280_humidity;BME280_pressure;Samples;Min_cycle;Max_cycle;Signal;HPM_P1;HPM_P2
2023/03/08 00:01:33;;;;;;;14.63;7.50;;;;;;;7.97;72.84;100137.63;4932893;29;20043;-90
2023/03/08 00:03:59;;;;;;;13.18;7.13;;;;;;;7.85;72.87;100117.47;4917892;29;20071;-88
2023/03/08 00:06:25;;;;;;;13.70;7.30;;;;;;;7.85;72.80;100128.16;4917828;29;20050;-88
2023/03/08 00:09:00;;;;;;;11.70;6.75;;;;;;;7.90;72.67;100141.91;4933700;29;20094;-88
2023/03/08 00:11:26;;;;;;;12.77;7.80;;;;;;;7.78;72.65;100117.25;4931468;29;20159;-90
2023/03/08 00:13:53;;;;;;;14.52;7.55;;;;;;;7.70;72.66;100123.38;4895654;29;20485;-89
2023/03/08 00:16:20;;;;;;;13.20;7.03;;;;;;;7.72;72.85;100129.38;4932838;29;20043;-90
2023/03/08 00:18:46;;;;;;;16.88;8.50;;;;;;;7.72;72.82;100125.88;4917520;29;20055;-89
2023/03/08 00:21:14;;;;;;;17.13;7.88;;;;;;;7.72;72.42;100116.00;4895645;29;20365;-90
2023/03/08 00:24:05;;;;;;;14.55;6.80;;;;;;;7.75;72.45;100123.75;4919857;28;20119;-89
2023/03/08 00:26:40;;;;;;;12.15;6.30;;;;;;;7.66;72.51;100113.97;4961868;29;20229;-87
2023/03/08 00:29:05;;;;;;;10.43;5.78;;;;;;;7.70;72.56;100119.84;4932785;29;20130;-91
2023/03/08 00:31:31;;;;;;;9.37;5.03;;;;;;;7.68;72.26;100122.69;4956429;29;20038;-90
2023/03/08 00:34:00;;;;;;;11.13;5.20;;;;;;;7.72;72.40;100118.69;4918499;29;20370;-91
2023/03/08 00:36:29;;;;;;;10.07;5.07;;;;;;;7.66;72.14;100113.97;4953290;29;20039;-90
2023/03/08 00:39:01;;;;;;;11.70;5.30;;;;;;;7.67;72.05;100112.13;4915511;29;20090;-89
2023/03/08 00:41:28;;;;;;;9.85;5.28;;;;;;;7.68;71.97;100119.16;4920609;29;20039;-90
2023/03/08 00:43:54;;;;;;;9.50;5.30;;;;;;;7.60;72.14;100109.22;4917279;29;20053;-91
2023/03/08 00:46:21;;;;;;;10.85;4.78;;;;;;;7.61;72.42;100110.94;4935555;29;20141;-90
2023/03/08 00:48:47;;;;;;;8.57;5.05;;;;;;;7.60;71.99;100109.22;4931779;29;20043;-88
2023/03/08 00:51:37;;;;;;;11.03;5.30;;;;;;;7.59;72.32;100119.09;4922416;29;20064;-90
2023/03/08 00:54:07;;;;;;;8.60;4.90;;;;;;;7.59;72.55;100113.75;4930170;29;20327;-88
2023/03/08 00:56:34;;;;;;;10.57;5.50;;;;;;;7.55;72.46;100117.72;4928315;29;20054;-89
2023/03/08 00:59:00;;;;;;;8.32;5.35;;;;;;;7.56;72.50;100119.41;4914428;29;20092;-89
2023/03/08 01:01:28;;;;;;;12.05;6.82;;;;;;;7.54;73.13;100118.72;4919955;29;20039;-90
2023/03/08 01:03:54;;;;;;;11.73;5.60;;;;;;;7.29;73.27;100074.88;4951617;29;20094;-90
2023/03/08 01:06:19;;;;;;;9.25;5.07;;;;;;;7.52;73.32;100106.50;4904224;29;20472;-88
2023/03/08 01:08:48;;;;;;;9.88;5.60;;;;;;;7.47;73.14;100106.09;4903230;29;20445;-89
2023/03/08 01:11:24;;;;;;;11.93;5.20;;;;;;;7.51;73.23;100121.69;4890590;29;20099;-90
2023/03/08 01:13:50;;;;;;;9.15;5.25;;;;;;;7.37;73.39;100103.53;4937282;29;20035;-89
2023/03/08 01:16:45;;;;;;;10.15;4.95;;;;;;;7.30;73.39;100105.97;4922655;29;20079;-88
2023/03/08 01:19:14;;;;;;;9.60;4.97;;;;;;;7.17;73.31;100081.47;4914924;29;20126;-89
2023/03/08 01:21:40;;;;;;;9.75;5.75;;;;;;;7.32;73.30;100108.50;4954904;29;20105;-89
2023/03/08 01:24:07;;;;;;;9.45;5.50;;;;;;;7.27;73.44;100103.59;4944484;28;20063;-87
2023/03/08 01:26:33;;;;;;;10.07;5.40;;;;;;;7.21;73.52;100098.88;4959083;28;20027;-88
2023/03/08 01:29:00;;;;;;;9.98;4.90;;;;;;;7.27;73.53;100105.44;4952471;28;20095;-88
2023/03/08 01:31:28;;;;;;;8.10;4.65;;;;;;;7.17;73.77;100102.84;4936381;29;20043;-87
2023/03/08 01:33:57;;;;;;;7.50;4.40;;;;;;;7.16;73.57;100093.13;4940240;29;20056;-89
2023/03/08 01:36:36;;;;;;;6.35;3.83;;;;;;;7.07;74.03;100083.34;4930252;29;20445;-88
2023/03/08 01:39:03;;;;;;;7.28;4.10;;;;;;;7.02;73.53;100072.28;4926957;29;20047;-89
2023/03/08 01:41:31;;;;;;;6.97;4.38;;;;;;;7.13;73.76;100104.97;4920101;29;20184;-90
2023/03/08 01:43:56;;;;;;;8.35;4.45;;;;;;;7.03;73.64;100090.03;4897360;29;20035;-88
2023/03/08 01:46:25;;;;;;;9.20;4.78;;;;;;;6.94;74.02;100108.63;4903312;29;20571;-88
2023/03/08 01:49:27;;;;;;;9.55;5.03;;;;;;;6.91;74.29;100102.75;4945502;29;20043;-88
2023/03/08 01:52:01;;;;;;;7.53;4.57;;;;;;;6.82;74.41;100096.47;4931144;29;20174;-90
2023/03/08 01:54:36;;;;;;;7.75;4.05;;;;;;;6.94;74.43;100099.78;4940738;28;20172;-88
2023/03/08 01:57:09;;;;;;;16.35;9.40;;;;;;;6.86;74.29;100100.53;4945643;28;20043;-88
2023/03/08 01:59:39;;;;;;;11.90;6.68;;;;;;;6.90;74.50;100109.91;4948427;29;20035;-90
2023/03/08 02:02:05;;;;;;;9.45;5.95;;;;;;;6.88;74.84;100103.03;4932229;29;20512;-90
2023/03/08 02:04:32;;;;;;;13.07;6.60;;;;;;;6.90;74.45;100104.56;4924087;29;20055;-88
2023/03/08 02:06:58;;;;;;;10.55;5.50;;;;;;;6.81;74.71;100096.63;4934210;29;20132;-89
2023/03/08 02:09:24;;;;;;;;;;;;;;;6.86;74.79;100115.72;4935464;29;20137;-86
2023/03/08 02:11:52;;;;;;;8.80;5.13;;;;;;;6.83;74.90;100116.84;4926899;29;19915;-87
2023/03/08 02:14:19;;;;;;;12.10;7.10;;;;;;;6.78;76.34;100113.78;4901619;29;20107;-87
2023/03/08 02:16:44;;;;;;;17.02;7.25;;;;;;;6.75;77.75;100096.25;4910741;29;20043;-87
2023/03/08 02:19:15;;;;;;;12.60;7.28;;;;;;;6.73;77.92;100100.06;4924859;29;20400;-89
2023/03/08 02:21:44;;;;;;;11.23;5.95;;;;;;;6.83;77.38;100111.50;4928019;29;20412;-88
2023/03/08 02:24:22;;;;;;;11.43;6.25;;;;;;;6.87;76.77;100101.38;4910964;29;20138;-89
2023/03/08 02:26:47;;;;;;;15.13;6.18;;;;;;;6.90;76.59;100112.59;4932699;29;20047;-89
2023/03/08 02:29:13;;;;;;;8.85;5.78;;;;;;;6.78;76.32;100092.41;4909328;29;20512;-90
2023/03/08 02:31:42;;;;;;;11.60;5.53;;;;;;;6.80;76.35;100105.63;4918495;29;20507;-89
2023/03/08 02:34:07;;;;;;;10.15;5.80;;;;;;;6.70;76.66;100103.88;4915922;29;20087;-87
2023/03/08 02:36:33;;;;;;;13.30;6.20;;;;;;;6.80;76.59;100114.50;4897145;29;20036;-89
2023/03/08 02:39:00;;;;;;;9.30;5.50;;;;;;;6.81;76.62;100116.16;4897723;29;20048;-85
2023/03/08 02:41:28;;;;;;;9.45;5.85;;;;;;;6.85;76.77;100116.72;4931278;29;20394;-87
2023/03/08 02:43:54;;;;;;;13.20;6.13;;;;;;;6.87;76.36;100122.75;4910817;29;20036;-88
2023/03/08 02:46:20;;;;;;;11.63;6.75;;;;;;;6.82;76.51;100099.16;4932239;29;20110;-87
2023/03/08 02:48:49;;;;;;;10.90;6.03;;;;;;;6.85;76.95;100104.19;4911517;29;20043;-88
2023/03/08 02:51:15;;;;;;;8.77;6.10;;;;;;;6.76;77.08;100110.44;4920669;29;20048;-88
2023/03/08 02:53:47;;;;;;;10.82;5.88;;;;;;;6.82;76.80;100115.19;4935574;29;20083;-88
2023/03/08 02:56:12;;;;;;;12.93;6.13;;;;;;;6.55;76.47;100071.47;4927335;29;20039;-88
2023/03/08 02:58:39;;;;;;;10.88;6.28;;;;;;;6.69;76.62;100102.16;4909155;29;20480;-88
2023/03/08 03:01:14;;;;;;;11.45;6.05;;;;;;;6.84;76.26;100112.38;4923724;29;20074;-88
2023/03/08 03:03:42;;;;;;;12.48;6.25;;;;;;;6.74;75.97;100096.38;4925410;29;20067;-89
2023/03/08 03:06:18;;;;;;;15.03;6.00;;;;;;;6.78;75.96;100111.13;4912347;29;20036;-90
2023/03/08 03:08:44;;;;;;;11.00;5.32;;;;;;;6.69;76.08;100104.00;4925945;29;20126;-89
2023/03/08 03:11:14;;;;;;;8.50;5.53;;;;;;;6.59;75.94;100092.53;4913385;29;20562;-89
2023/03/08 03:13:39;;;;;;;13.63;5.60;;;;;;;6.61;75.98;100095.91;4924295;29;20298;-88
2023/03/08 03:16:12;;;;;;;12.75;5.90;;;;;;;6.52;76.06;100087.78;4908624;29;20398;-89
2023/03/08 03:18:37;;;;;;;14.35;5.60;;;;;;;6.66;76.16;100123.00;4924256;29;20039;-88
2023/03/08 03:21:09;;;;;;;14.98;6.60;;;;;;;6.65;76.09;100123.97;4913908;29;20576;-88
2023/03/08 03:23:35;;;;;;;14.15;6.22;;;;;;;6.54;76.40;100125.88;4932826;29;20070;-87
2023/03/08 03:26:13;;;;;;;13.20;6.22;;;;;;;6.52;76.91;100129.69;4949485;28;20042;-88
2023/03/08 03:28:40;;;;;;;12.82;6.45;;;;;;;6.51;76.70;100123.50;4930721;28;20082;-87
2023/03/08 03:31:09;;;;;;;9.82;6.07;;;;;;;6.52;76.62;100135.84;4916717;28;20074;-88
2023/03/08 03:33:36;;;;;;;11.55;5.90;;;;;;;6.48;76.96;100139.81;4913980;29;20118;-90
2023/03/08 03:36:02;;;;;;;12.13;5.72;;;;;;;6.44;76.54;100122.41;4918778;29;20050;-90
2023/03/08 03:38:29;;;;;;;11.93;6.38;;;;;;;6.33;76.95;100130.59;4897285;29;20509;-86
2023/03/08 03:41:03;;;;;;;13.50;6.05;;;;;;;6.26;76.96;100146.38;4900680;29;20071;-87
2023/03/08 03:43:29;;;;;;;22.73;9.98;;;;;;;6.27;76.96;100131.19;4942760;28;20036;-88
2023/03/08 03:46:02;;;;;;;26.42;10.75;;;;;;;6.37;76.65;100137.34;4920450;29;20047;-89
2023/03/08 03:48:28;;;;;;;25.73;10.30;;;;;;;6.20;76.94;100132.75;4945411;29;20070;-87
2023/03/08 03:50:59;;;;;;;18.63;7.97;;;;;;;6.33;76.69;100138.63;4907749;29;20445;-87
2023/03/08 03:53:28;;;;;;;16.42;8.13;;;;;;;6.25;76.96;100143.81;4914923;29;20048;-86
2023/03/08 03:55:54;;;;;;;18.20;8.20;;;;;;;5.95;77.69;100111.06;4920395;29;20461;-86
2023/03/08 03:58:19;;;;;;;30.33;10.52;;;;;;;6.06;77.81;100128.72;4922206;29;20043;-85
2023/03/08 04:00:46;;;;;;;15.63;8.63;;;;;;;6.17;77.69;100133.06;4944811;28;20067;-88
2023/03/08 04:03:14;;;;;;;14.65;7.25;;;;;;;6.21;77.28;100137.13;4922993;29;20506;-88
2023/03/08 04:05:39;;;;;;;20.80;8.15;;;;;;;6.05;77.31;100106.53;4949412;29;20046;-86
2023/03/08 04:08:09;;;;;;;15.43;8.17;;;;;;;6.21;77.47;100132.63;4940531;29;20044;-89
2023/03/08 04:10:35;;;;;;;12.48;7.20;;;;;;;6.12;77.78;100120.97;4929233;29;20303;-89
2023/03/08 04:13:03;;;;;;;12.45;6.40;;;;;;;6.24;77.83;100139.50;4914635;29;20138;-89
2023/03/08 04:15:29;;;;;;;10.35;5.68;;;;;;;6.21;77.95;100142.47;4920179;29;20118;-89
2023/03/08 04:17:55;;;;;;;10.40;6.88;;;;;;;6.04;78.37;100128.88;4915937;29;20087;-87
2023/03/08 04:20:22;;;;;;;15.00;7.00;;;;;;;6.23;77.80;100135.16;4919695;28;20055;-87
2023/03/08 04:22:48;;;;;;;12.02;6.63;;;;;;;6.30;77.72;100136.25;4951801;29;20118;-88
2023/03/08 04:25:14;;;;;;;13.70;7.15;;;;;;;6.24;77.86;100136.81;4919476;29;20167;-86
2023/03/08 04:27:41;;;;;;;15.10;7.33;;;;;;;6.14;78.00;100123.50;4905952;29;20511;-87
2023/03/08 04:30:07;;;;;;;12.35;7.25;;;;;;;6.31;77.68;100135.25;4913417;29;20085;-89
2023/03/08 04:32:33;;;;;;;17.67;8.50;;;;;;;6.22;77.49;100118.28;4920769;29;20043;-89
2023/03/08 04:34:59;;;;;;;17.63;8.18;;;;;;;6.27;76.97;100104.47;4920369;29;20054;-90
2023/03/08 04:37:25;;;;;;;15.45;8.20;;;;;;;6.38;77.17;100132.84;4942338;29;20055;-89
2023/03/08 04:39:53;;;;;;;16.77;8.25;;;;;;;6.41;76.87;100122.69;4924772;28;20039;-88
2023/03/08 04:42:19;;;;;;;15.23;6.97;;;;;;;6.49;76.76;100133.50;4954777;29;20082;-88
2023/03/08 04:44:50;;;;;;;17.58;8.25;;;;;;;6.45;76.82;100134.75;4926774;29;20487;-87
2023/03/08 04:47:15;;;;;;;16.40;8.45;;;;;;;6.43;76.66;100131.41;4950983;28;20429;-87
2023/03/08 04:49:45;;;;;;;18.25;7.55;;;;;;;6.58;76.46;100128.25;4937885;29;20074;-89
2023/03/08 04:52:11;;;;;;;15.13;7.63;;;;;;;6.67;76.11;100138.03;4922134;29;20416;-88
2023/03/08 04:54:37;;;;;;;15.80;7.65;;;;;;;6.65;76.09;100123.97;4949698;28;20085;-87
2023/03/08 04:57:03;;;;;;;18.27;7.93;;;;;;;6.58;76.13;100128.25;4925843;29;20388;-88
2023/03/08 04:59:29;;;;;;;16.48;7.60;;;;;;;6.66;75.96;100139.03;4945682;29;20048;-88
2023/03/08 05:01:56;;;;;;;20.98;9.38;;;;;;;6.80;75.74;100138.53;4918950;29;20039;-88
2023/03/08 05:04:22;;;;;;;17.75;8.73;;;;;;;6.94;75.14;100146.03;4921129;29;20047;-87
2023/03/08 05:06:48;;;;;;;20.17;8.93;;;;;;;6.99;75.21;100134.91;4932780;28;20435;-87
2023/03/08 05:09:14;;;;;;;21.87;10.70;;;;;;;7.03;75.01;100135.47;4951215;28;20135;-86
2023/03/08 05:11:41;;;;;;;24.33;10.75;;;;;;;7.07;75.03;100139.50;4932517;28;20370;-89
2023/03/08 05:14:09;;;;;;;20.60;10.30;;;;;;;7.16;74.51;100143.94;4919141;29;20542;-85
2023/03/08 05:16:37;;;;;;;24.73;10.55;;;;;;;7.20;74.23;100139.97;4922278;29;20411;-87
2023/03/08 05:19:05;;;;;;;22.25;12.10;;;;;;;7.25;74.06;100142.19;4961488;28;20047;-87
2023/03/08 05:21:36;;;;;;;29.33;15.23;;;;;;;7.34;73.73;100152.81;4934065;28;20074;-86
2023/03/08 05:24:02;;;;;;;33.60;14.75;;;;;;;7.37;73.73;100146.31;4944703;29;20057;-89
2023/03/08 05:26:27;;;;;;;28.95;16.23;;;;;;;7.48;73.50;100161.28;4904848;29;20047;-87
2023/03/08 05:28:54;;;;;;;28.95;14.77;;;;;;;7.56;73.68;100161.34;4918013;29;20074;-90
2023/03/08 05:31:22;;;;;;;21.10;11.85;;;;;;;7.57;73.24;100163.06;4921982;29;20122;-89
2023/03/08 05:33:52;;;;;;;32.50;14.80;;;;;;;7.59;73.78;100166.41;4914480;28;20059;-89
2023/03/08 05:36:18;;;;;;;34.85;16.15;;;;;;;7.49;73.86;100157.63;4916111;28;20113;-89
2023/03/08 05:39:06;;;;;;;41.90;18.92;;;;;;;7.59;73.43;100172.59;4913605;28;20040;-88
2023/03/08 05:41:32;;;;;;;66.35;25.77;;;;;;;7.78;73.08;100176.94;4947160;28;20043;-89
2023/03/08 05:44:29;;;;;;;49.25;18.40;;;;;;;7.86;72.98;100178.00;4928515;29;20043;-89
2023/03/08 05:46:55;;;;;;;39.85;18.75;;;;;;;7.90;72.42;100163.31;4960118;29;20114;-89
2023/03/08 05:49:27;;;;;;;62.57;20.23;;;;;;;7.94;72.32;100167.38;4921537;28;20048;-87
2023/03/08 05:51:57;;;;;;;47.60;21.25;;;;;;;8.01;72.23;100157.72;4934816;28;20294;-88
2023/03/08 05:54:27;;;;;;;49.35;20.13;;;;;;;8.02;72.00;100151.34;4933899;29;20055;-91
2023/03/08 05:57:01;;;;;;;52.60;18.05;;;;;;;8.32;71.50;100167.97;4935797;29;20058;-88
2023/03/08 05:59:27;;;;;;;42.17;19.63;;;;;;;9.13;70.30;100177.38;4946601;29;20051;-88
2023/03/08 06:01:54;;;;;;;37.13;17.42;;;;;;;11.47;63.92;100150.41;4939116;29;20031;-86
2023/03/08 06:04:21;;;;;;;41.92;17.40;;;;;;;14.21;56.86;100166.44;4949702;29;20103;-90
2023/03/08 06:06:46;;;;;;;42.92;19.48;;;;;;;16.37;48.76;100157.75;4935558;29;20042;-90
2023/03/08 06:09:15;;;;;;;48.85;21.13;;;;;;;18.33;43.54;100157.13;4950753;29;20056;-90
2023/03/08 06:11:44;;;;;;;45.70;21.38;;;;;;;19.93;38.08;100160.56;4949831;29;20058;-91
2023/03/08 06:14:11;;;;;;;42.90;21.52;;;;;;;21.25;36.16;100134.53;4929603;29;20061;-91
2023/03/08 06:16:38;;;;;;;39.88;19.70;;;;;;;22.56;32.78;100138.09;4904998;29;20043;-93
2023/03/08 06:19:06;;;;;;;44.03;22.17;;;;;;;23.67;30.47;100150.69;4930809;29;20046;-95
2023/03/08 06:24:35;;;;;;;50.30;23.20;;;;;;;25.38;27.85;100143.22;5767675;23;20047;31
2023/03/08 06:27:03;;;;;;;51.88;22.02;;;;;;;26.42;26.69;100168.63;4938842;29;20377;-91
2023/03/08 06:29:41;;;;;;;53.47;23.15;;;;;;;26.91;25.41;100147.84;4911591;29;20056;-93
2023/03/08 06:34:45;;;;;;;46.55;23.40;;;;;;;27.74;24.41;100160.88;4932097;29;20048;-93
2023/03/08 06:37:13;;;;;;;48.53;24.15;;;;;;;28.03;24.05;100157.41;4886423;29;20051;-92
2023/03/08 06:42:44;;;;;;;41.70;21.73;;;;;;;28.32;22.82;100168.44;5672257;23;21933;-94
2023/03/08 06:45:21;;;;;;;41.30;22.52;;;;;;;27.84;23.77;100171.09;4921620;29;20055;-95
2023/03/08 06:48:17;;;;;;;48.97;23.15;;;;;;;28.05;23.68;100173.66;4927106;29;20107;-90
2023/03/08 06:50:50;;;;;;;37.10;18.75;;;;;;;28.28;22.95;100181.19;4942648;29;20043;-95
2023/03/08 06:53:25;;;;;;;56.47;23.35;;;;;;;28.27;23.40;100185.09;4904369;29;20689;-95
2023/03/08 06:55:57;;;;;;;52.10;25.65;;;;;;;28.04;23.46;100175.63;4925387;29;20040;-94
2023/03/08 06:58:40;;;;;;;35.40;21.50;;;;;;;27.85;24.00;100194.00;4939578;29;20043;-94
2023/03/08 07:06:10;;;;;;;37.42;17.27;;;;;;;27.06;23.91;100185.56;4970556;28;20061;-93
2023/03/08 07:08:40;;;;;;;36.30;16.65;;;;;;;26.71;24.80;100185.41;4941505;28;20138;-92
2023/03/08 07:11:07;;;;;;;43.15;16.50;;;;;;;26.27;25.14;100183.25;4956577;28;20055;-91
2023/03/08 07:13:56;;;;;;;38.13;17.38;;;;;;;26.28;25.37;100198.66;4926583;28;20050;-92
2023/03/08 07:16:34;;;;;;;43.78;15.25;;;;;;;25.95;25.62;100185.47;5039038;23;20079;-88
2023/03/08 07:19:33;;;;;;;27.05;12.95;;;;;;;25.66;25.95;100183.16;5253895;23;20111;31
2023/03/08 07:22:24;;;;;;;27.67;12.65;;;;;;;25.32;26.33;100183.66;5647021;23;20046;-93
2023/03/08 07:27:25;;;;;;;;;;;;;;;25.52;26.25;100215.06;5390902;23;20138;-95
2023/03/08 07:29:55;;;;;;;21.02;11.20;;;;;;;25.59;26.57;100221.13;4957358;29;20023;-93
2023/03/08 07:32:22;;;;;;;16.05;8.77;;;;;;;25.52;26.98;100232.44;4926799;29;20125;-95
2023/03/08 07:35:14;;;;;;;18.88;9.60;;;;;;;25.82;26.30;100220.63;4910796;29;20993;-95
2023/03/08 07:37:46;;;;;;;22.20;9.35;;;;;;;26.36;25.48;100207.47;4957159;28;20036;-94
2023/03/08 07:40:15;;;;;;;22.65;8.82;;;;;;;26.94;24.49;100216.22;4920649;29;20052;-89
2023/03/08 07:42:42;;;;;;;16.70;8.15;;;;;;;27.11;24.45;100219.47;4940065;28;20047;-89
2023/03/08 07:45:08;;;;;;;17.23;7.03;;;;;;;26.32;24.63;100198.94;4927641;29;20058;-92
2023/03/08 07:47:34;;;;;;;14.60;6.63;;;;;;;26.10;26.06;100218.50;4919568;29;20428;-86
2023/03/08 07:50:04;;;;;;;18.75;7.82;;;;;;;26.52;26.15;100206.34;4951435;29;20074;-90
2023/03/08 07:52:34;;;;;;;13.90;9.48;;;;;;;27.26;24.33;100185.50;4915265;29;20043;-94
2023/03/08 07:55:01;;;;;;;17.25;8.05;;;;;;;27.39;24.02;100197.84;4946333;29;20050;-93
2023/03/08 07:57:28;;;;;;;15.35;8.68;;;;;;;28.22;23.29;100196.19;4908279;29;20645;-95
2023/03/08 07:59:56;;;;;;;17.35;8.70;;;;;;;28.41;22.23;100196.28;4898952;29;20035;-94
2023/03/08 08:02:22;;;;;;;19.75;8.95;;;;;;;27.98;22.71;100196.94;4950108;28;20118;-88
2023/03/08 08:04:59;;;;;;;16.92;9.50;;;;;;;27.40;23.43;100205.03;4935149;29;20495;-89
2023/03/08 08:07:30;;;;;;;22.48;9.38;;;;;;;29.36;21.73;100213.25;4954284;29;20050;-90
2023/03/08 08:09:56;;;;;;;13.70;7.20;;;;;;;29.75;20.69;100201.09;4939780;29;20172;-90
2023/03/08 08:12:23;;;;;;;14.23;7.50;;;;;;;29.06;21.39;100198.66;4925658;29;20452;-92
2023/03/08 08:14:52;;;;;;;19.80;7.38;;;;;;;29.56;21.08;100212.97;4917476;29;20051;-89
2023/03/08 08:17:18;;;;;;;12.93;7.05;;;;;;;29.96;20.71;100185.78;4933022;29;20043;-91
2023/03/08 08:19:46;;;;;;;16.85;6.85;;;;;;;30.38;19.83;100178.44;4921247;29;20077;-88
2023/03/08 08:22:14;;;;;;;18.38;6.45;;;;;;;30.28;20.34;100170.31;4951550;29;20135;-85
2023/03/08 08:24:39;;;;;;;8.52;5.10;;;;;;;31.12;19.26;100183.16;4953837;29;20051;-91
2023/03/08 08:27:06;;;;;;;11.48;5.30;;;;;;;31.63;18.55;100175.63;4940241;29;20056;-91
2023/03/08 08:29:34;;;;;;;14.45;5.15;;;;;;;32.10;19.26;100178.97;4941687;29;20051;-91
2023/03/08 08:32:03;;;;;;;7.72;4.72;;;;;;;31.29;19.11;100188.88;4922465;29;20143;-87
2023/03/08 08:34:28;;;;;;;12.77;5.38;;;;;;;32.57;17.89;100171.09;4920261;29;20039;-90
2023/03/08 08:36:56;;;;;;;16.38;6.80;;;;;;;32.71;18.03;100169.03;4945933;29;20046;-86
2023/03/08 08:39:24;;;;;;;12.57;6.80;;;;;;;34.04;16.49;100175.28;4948857;28;20047;-89
2023/03/08 08:41:53;;;;;;;15.25;7.00;;;;;;;34.34;16.09;100169.84;4941909;29;20051;-87
2023/03/08 08:44:18;;;;;;;12.25;7.20;;;;;;;34.61;16.37;100189.00;4950737;28;20074;-86
2023/03/08 08:46:49;;;;;;;19.00;8.75;;;;;;;35.31;15.31;100166.31;4938462;29;20188;-86
2023/03/08 08:49:16;;;;;;;14.85;10.45;;;;;;;34.45;15.75;100166.34;4919071;29;20424;-92
2023/03/08 08:51:43;;;;;;;15.23;10.23;;;;;;;34.83;15.47;100164.75;4921696;29;20131;-87
2023/03/08 08:54:08;;;;;;;15.38;9.65;;;;;;;34.24;15.80;100183.00;4933552;29;20040;-88
2023/03/08 08:56:41;;;;;;;14.48;9.63;;;;;;;34.01;15.80;100162.00;4926100;29;20051;-89
2023/03/08 08:59:09;;;;;;;23.60;10.57;;;;;;;35.49;15.70;100164.19;4940950;29;20047;-88
2023/03/08 09:01:38;;;;;;;14.05;8.77;;;;;;;35.44;14.83;100173.59;4941270;29;20041;-87
2023/03/08 09:04:27;;;;;;;11.85;8.30;;;;;;;36.08;13.81;100150.03;4927001;29;20043;-95
2023/03/08 09:07:23;;;;;;;14.95;7.95;;;;;;;36.05;13.79;100169.47;4955794;29;20042;-92
2023/03/08 09:09:53;;;;;;;18.13;8.23;;;;;;;37.07;13.82;100173.41;4955702;29;20049;-94
2023/03/08 09:12:19;;;;;;;17.17;8.40;;;;;;;37.48;12.83;100173.44;4955273;29;20062;-92
2023/03/08 09:14:47;;;;;;;14.95;7.07;;;;;;;36.48;13.46;100171.81;4924282;29;20039;-94
2023/03/08 09:17:17;;;;;;;12.48;6.18;;;;;;;37.03;13.38;100172.44;4948507;29;20575;-92
2023/03/08 09:19:49;;;;;;;12.77;6.20;;;;;;;35.89;13.81;100167.34;4943099;29;20039;-90
2023/03/08 09:22:14;;;;;;;10.55;5.55;;;;;;;37.75;12.37;100171.88;4925150;29;20039;-91
2023/03/08 09:24:44;;;;;;;9.70;5.20;;;;;;;38.91;11.81;100170.94;4936764;29;20043;-87
2023/03/08 09:27:13;;;;;;;10.52;4.90;;;;;;;39.15;11.38;100162.34;4937335;29;20048;-93
2023/03/08 09:29:40;;;;;;;9.27;5.32;;;;;;;38.81;11.58;100167.53;4938694;29;20043;-92
2023/03/08 09:32:07;;;;;;;11.77;5.70;;;;;;;38.12;11.84;100163.28;4942360;29;20118;-92
2023/03/08 09:34:37;;;;;;;11.93;5.63;;;;;;;38.22;12.08;100172.00;4940257;29;20113;-87
2023/03/08 09:37:07;;;;;;;16.90;5.90;;;;;;;39.48;11.26;100163.88;4934620;29;20066;-91
2023/03/08 09:39:39;;;;;;;13.10;6.97;;;;;;;39.85;11.38;100152.19;4918203;29;20047;-91
2023/03/08 09:42:13;;;;;;;;;;;;;;;38.47;12.07;100151.41;4945851;29;20172;-92
2023/03/08 09:45:10;;;;;;;17.33;7.43;;;;;;;36.64;12.76;100159.97;4929359;29;20001;-90
2023/03/08 09:47:58;;;;;;;15.60;7.50;;;;;;;37.21;13.36;100158.22;4953970;29;20040;-92
2023/03/08 09:50:45;;;;;;;17.15;7.95;;;;;;;37.65;12.61;100155.53;4943112;29;20069;-89
2023/03/08 09:53:31;;;;;;;15.45;7.90;;;;;;;36.73;13.31;100125.06;4934846;29;20065;-91
2023/03/08 09:56:10;;;;;;;19.05;8.77;;;;;;;35.05;13.88;100149.66;4934380;29;20039;-84
2023/03/08 09:59:03;;;;;;;20.67;9.32;;;;;;;34.37;15.20;100161.63;4924626;29;20036;-88
2023/03/08 10:01:45;;;;;;;15.60;8.40;;;;;;;32.24;16.77;100151.09;4941393;29;20169;-86
2023/03/08 10:04:22;;;;;;;17.23;8.32;;;;;;;32.25;16.36;100158.31;4921049;29;20488;-87
2023/03/08 10:06:56;;;;;;;21.25;9.10;;;;;;;31.60;16.92;100140.97;4951523;28;20118;-83
2023/03/08 10:09:38;;;;;;;20.30;8.25;;;;;;;31.93;16.62;100138.75;4916009;29;20062;-86
2023/03/08 10:12:28;;;;;;;14.50;7.53;;;;;;;32.75;16.08;100139.41;4929183;29;20051;-86
2023/03/08 10:14:57;;;;;;;14.43;8.20;;;;;;;34.60;14.79;100123.16;4948608;29;20047;-85
2023/03/08 10:17:26;;;;;;;15.88;9.23;;;;;;;36.06;13.39;100137.56;4901110;29;20046;-86
2023/03/08 10:19:58;;;;;;;15.15;7.55;;;;;;;36.01;12.68;100140.53;4935749;29;20122;-83
2023/03/08 10:22:29;;;;;;;13.98;8.32;;;;;;;36.65;12.52;100128.81;4917169;29;20641;-85
2023/03/08 10:24:59;;;;;;;15.68;7.13;;;;;;;37.05;12.31;100133.69;4946214;28;20087;-85
2023/03/08 10:27:31;;;;;;;11.77;4.97;;;;;;;36.63;12.57;100121.94;4931356;29;20048;-84
2023/03/08 10:29:58;;;;;;;8.48;5.10;;;;;;;36.09;12.48;100131.25;4934641;29;20538;-85
2023/03/08 10:32:25;;;;;;;9.45;5.25;;;;;;;37.15;11.90;100122.00;4939264;29;20044;-85
2023/03/08 10:34:51;;;;;;;10.70;3.97;;;;;;;38.15;11.58;100121.31;4954796;28;20057;-85
2023/03/08 10:37:21;;;;;;;43.58;9.30;;;;;;;36.38;12.35;100112.69;4942564;29;20063;-82
2023/03/08 10:39:51;;;;;;;17.50;5.90;;;;;;;35.32;13.28;100114.84;4944009;29;20075;-81
2023/03/08 10:42:22;;;;;;;10.60;3.95;;;;;;;35.42;13.06;100114.41;4946330;29;20194;-82
2023/03/08 10:45:01;;;;;;;17.35;4.72;;;;;;;36.72;12.06;100115.06;4961866;29;20035;-83
2023/03/08 10:47:34;;;;;;;10.43;4.70;;;;;;;36.38;12.00;100116.28;4961581;29;20043;-82
2023/03/08 10:50:20;;;;;;;15.70;4.90;;;;;;;36.16;11.94;100108.34;4958342;29;20035;-84
2023/03/08 10:52:47;;;;;;;12.23;6.72;;;;;;;37.04;11.81;100109.66;4936431;29;20047;-84
2023/03/08 10:55:17;;;;;;;8.77;4.45;;;;;;;35.11;12.78;100100.06;4935711;29;20109;-84
2023/03/08 10:58:00;;;;;;;8.48;3.88;;;;;;;34.86;12.75;100103.47;4917652;29;20050;-88
2023/03/08 11:00:37;;;;;;;6.00;3.92;;;;;;;33.51;13.20;100099.25;4919297;29;20075;-85
2023/03/08 11:03:12;;;;;;;11.07;4.70;;;;;;;33.95;12.91;100096.41;4931932;29;20085;-83
2023/03/08 11:05:38;;;;;;;12.40;4.93;;;;;;;34.94;12.40;100087.81;4940329;29;20035;-84
2023/03/08 11:08:04;;;;;;;8.07;4.30;;;;;;;34.23;13.08;100100.47;4930504;29;20052;-86
2023/03/08 11:10:31;;;;;;;9.95;4.53;;;;;;;34.08;12.54;100097.38;4932021;29;20058;-86
2023/03/08 11:13:46;;;;;;;9.50;3.70;;;;;;;34.40;12.83;100087.59;4933919;29;20120;-82
2023/03/08 11:16:23;;;;;;;12.05;3.70;;;;;;;35.05;12.29;100077.03;4920062;29;20542;-85
2023/03/08 11:18:56;;;;;;;5.47;3.28;;;;;;;35.57;11.94;100081.44;4938567;29;20047;-87
2023/03/08 11:22:02;;;;;;;8.13;3.00;;;;;;;35.71;11.46;100073.59;4934031;29;20051;-86
2023/03/08 11:24:51;;;;;;;5.90;2.58;;;;;;;35.66;11.96;100084.97;4857873;29;20065;-84
2023/03/08 11:28:18;;;;;;;5.97;2.78;;;;;;;35.03;11.89;100073.81;4851620;29;20049;-88
2023/03/08 11:31:05;;;;;;;9.20;3.40;;;;;;;34.85;12.23;100073.09;4843929;29;20106;-83
2023/03/08 11:33:46;;;;;;;5.65;2.83;;;;;;;35.93;12.00;100070.38;4922162;29;20047;-83
2023/03/08 11:36:29;;;;;;;8.07;3.05;;;;;;;35.98;11.26;100076.91;4917840;29;20039;-84
2023/03/08 11:39:39;;;;;;;7.13;2.50;;;;;;;34.21;11.79;100072.09;4940483;29;20491;-86
2023/03/08 11:42:23;;;;;;;5.22;2.40;;;;;;;33.42;12.75;100085.31;4943023;29;20134;-87
2023/03/08 11:45:25;;;;;;;7.10;2.75;;;;;;;33.03;12.75;100071.50;4950819;28;20065;-86
2023/03/08 11:48:09;;;;;;;8.98;3.33;;;;;;;33.48;12.96;100077.59;4927926;29;20078;-86
2023/03/08 11:50:56;;;;;;;9.27;2.65;;;;;;;31.27;13.93;100068.97;4932980;28;20046;-83
2023/03/08 11:53:35;;;;;;;12.55;2.58;;;;;;;30.97;14.13;100073.25;4948837;28;20049;-88
2023/03/08 11:56:01;;;;;;;13.75;3.17;;;;;;;31.55;13.81;100075.25;4948353;28;20062;-86
2023/03/08 11:58:50;;;;;;;5.55;2.80;;;;;;;32.23;13.89;100066.03;4947702;29;20066;-85